Time;durP1;ratioP1;P1;durP2;ratioP2;P2;SDS_P1;SDS_P2;PMS_P1;PMS_P2;Temp;Humidity;BMP_temperature;BMP_pressure;BME280_temperature;BME280_humidity;BME280_pressure;Samples;Min_cycle;Max_cycle;Signal;HPM_P1;HPM_P2
2023/11/08 00:02:26;;;;;;;2.40;2.28;;;;;;;;;;6307819;28;20241;-70
2023/11/08 00:05:31;;;;;;;2.08;1.88;;;;;;;;;;6307003;28;20298;-71
2023/11/08 00:08:34;;;;;;;2.10;2.00;;;;;;;;;;6307105;28;20286;-71
2023/11/08 00:11:38;;;;;;;2.03;2.03;;;;;;;;;;6307122;28;20297;-71
2023/11/08 00:14:42;;;;;;;2.30;2.10;;;;;;;;;;6307100;28;20298;-72
2023/11/08 00:17:48;;;;;;;2.15;2.08;;;;;;;;;;6307102;28;20290;-71
2023/11/08 00:20:51;;;;;;;3.38;2.00;;;;;;;;;;6306260;28;20430;-71
2023/11/08 00:23:57;;;;;;;1.98;1.98;;;;;;;;;;6306883;28;20306;-70
2023/11/08 00:27:01;;;;;;;2.10;2.10;;;;;;;;;;6306891;28;20298;-72
2023/11/08 00:30:06;;;;;;;4.57;2.45;;;;;;;;;;6306449;28;20302;-71
2023/11/08 00:33:11;;;;;;;2.30;2.10;;;;;;;;;;6305354;28;20290;-70
2023/11/08 00:36:15;;;;;;;3.70;1.80;;;;;;;;;;6306649;28;20266;-72
2023/11/08 00:39:19;;;;;;;2.60;1.83;;;;;;;;;;6304416;28;20305;-70
2023/11/08 00:42:23;;;;;;;1.75;1.75;;;;;;;;;;6306881;28;20242;-70
2023/11/08 00:45:26;;;;;;;2.17;2.17;;;;;;;;;;6304605;28;20306;-71
2023/11/08 00:48:32;;;;;;;2.00;1.90;;;;;;;;;;6304724;28;20298;-71
2023/11/08 00:51:36;;;;;;;1.98;1.90;;;;;;;;;;6303439;28;20587;-70
2023/11/08 00:54:40;;;;;;;2.00;1.90;;;;;;;;;;6306051;28;20297;-72
2023/11/08 00:57:44;;;;;;;2.22;1.92;;;;;;;;;;6304391;28;20294;-71
2023/11/08 01:00:49;;;;;;;2.03;1.92;;;;;;;;;;6306355;28;20309;-71
2023/11/08 01:03:54;;;;;;;2.38;1.85;;;;;;;;;;6305909;28;20321;-71
2023/11/08 01:07:00;;;;;;;1.92;1.90;;;;;;;;;;6305877;28;20294;-71
2023/11/08 01:10:05;;;;;;;2.08;1.98;;;;;;;;;;6305179;28;20290;-72
2023/11/08 01:13:09;;;;;;;2.33;1.77;;;;;;;;;;6304014;28;20302;-71
2023/11/08 01:16:13;;;;;;;2.40;2.10;;;;;;;;;;6304341;28;20310;-71
2023/11/08 01:19:19;;;;;;;4.68;2.35;;;;;;;;;;6305308;28;20298;-71
2023/11/08 01:22:23;;;;;;;2.20;2.10;;;;;;;;;;6304735;28;20289;-71
2023/11/08 01:25:27;;;;;;;1.92;1.92;;;;;;;;;;6304039;28;20294;-71
2023/11/08 01:28:31;;;;;;;1.80;1.80;;;;;;;;;;6304119;28;20302;-71
2023/11/08 01:31:35;;;;;;;2.67;2.10;;;;;;;;;;6304052;28;20285;-71
2023/11/08 01:34:40;;;;;;;2.40;2.30;;;;;;;;;;6304935;28;20286;-71
2023/11/08 01:37:44;;;;;;;5.82;2.30;;;;;;;;;;6305079;28;20302;-72
2023/11/08 01:40:48;;;;;;;2.95;2.30;;;;;;;;;;6305548;28;20386;-71
2023/11/08 01:43:52;;;;;;;2.60;2.50;;;;;;;;;;6305059;28;20622;-71
2023/11/08 01:46:57;;;;;;;3.05;2.40;;;;;;;;;;6304291;28;20290;-73
2023/11/08 01:50:03;;;;;;;3.95;2.80;;;;;;;;;;6305033;28;20306;-72
2023/11/08 01:53:07;;;;;;;2.40;2.30;;;;;;;;;;6303043;28;20590;-71
2023/11/08 01:56:11;;;;;;;2.33;2.22;;;;;;;;;;6304140;28;20298;-71
2023/11/08 01:59:17;;;;;;;3.10;2.10;;;;;;;;;;6303777;28;20286;-71
2023/11/08 02:02:21;;;;;;;2.45;2.35;;;;;;;;;;6303896;28;20289;-70
2023/11/08 02:05:27;;;;;;;5.47;2.47;;;;;;;;;;6304740;28;20819;-70
2023/11/08 02:08:31;;;;;;;2.83;2.40;;;;;;;;;;6304879;28;20477;-71
2023/11/08 02:11:35;;;;;;;2.80;2.42;;;;;;;;;;6305091;28;20298;-71
2023/11/08 02:15:00;;;;;;;2.22;2.10;;;;;;;;;;6303225;28;20290;-70
2023/11/08 02:18:04;;;;;;;2.13;2.13;;;;;;;;;;6303198;28;20579;-70
2023/11/08 02:21:09;;;;;;;2.38;2.17;;;;;;;;;;6305064;28;20282;-71
2023/11/08 02:24:19;;;;;;;2.92;2.10;;;;;;;;;;6308078;28;20326;-72
2023/11/08 02:27:22;;;;;;;2.65;2.25;;;;;;;;;;6309797;28;20242;-71
2023/11/08 02:30:26;;;;;;;2.42;2.22;;;;;;;;;;6309217;28;20587;-71
2023/11/08 02:33:30;;;;;;;3.03;2.67;;;;;;;;;;6309290;28;20299;-72
2023/11/08 02:36:34;;;;;;;3.15;2.30;;;;;;;;;;6309789;28;20315;-71
2023/11/08 02:39:40;;;;;;;2.58;2.47;;;;;;;;;;6309191;28;20302;-72
2023/11/08 02:42:45;;;;;;;2.40;2.20;;;;;;;;;;6308930;28;20310;-72
2023/11/08 02:45:49;;;;;;;2.67;2.47;;;;;;;;;;6309146;28;20436;-72
2023/11/08 02:48:56;;;;;;;2.10;2.10;;;;;;;;;;6307053;28;20277;-70
2023/11/08 02:52:01;;;;;;;4.40;2.42;;;;;;;;;;6307371;28;20290;-72
2023/11/08 02:55:07;;;;;;;2.45;2.38;;;;;;;;;;6308475;28;20298;-71
2023/11/08 02:58:11;;;;;;;2.13;2.13;;;;;;;;;;6308461;28;20282;-72
2023/11/08 03:01:14;;;;;;;2.50;2.30;;;;;;;;;;6308862;28;20286;-69
2023/11/08 03:04:20;;;;;;;2.20;2.20;;;;;;;;;;6306723;28;20296;-71
2023/11/08 03:07:24;;;;;;;2.40;2.40;;;;;;;;;;6308989;28;20598;-71
2023/11/08 03:10:30;;;;;;;2.20;2.20;;;;;;;;;;6307937;28;20298;-71
2023/11/08 03:13:34;;;;;;;1.90;1.90;;;;;;;;;;6306938;28;20294;-71
2023/11/08 03:16:38;;;;;;;2.90;2.80;;;;;;;;;;6308497;28;20378;-72
2023/11/08 03:19:42;;;;;;;3.83;2.33;;;;;;;;;;6307959;28;20306;-71
2023/11/08 03:22:46;;;;;;;4.00;2.40;;;;;;;;;;6308199;28;20487;-72
2023/11/08 03:25:51;;;;;;;2.22;2.22;;;;;;;;;;6308533;28;20326;-71
2023/11/08 03:28:55;;;;;;;2.78;2.50;;;;;;;;;;6308115;28;20312;-70
2023/11/08 03:32:00;;;;;;;3.30;2.28;;;;;;;;;;6308453;28;20306;-71
2023/11/08 03:35:05;;;;;;;2.50;2.40;;;;;;;;;;6307806;28;20334;-70
2023/11/08 03:38:08;;;;;;;2.30;2.20;;;;;;;;;;6307645;28;20286;-70
2023/11/08 03:41:14;;;;;;;2.03;2.03;;;;;;;;;;6308137;28;20598;-70
2023/11/08 03:44:18;;;;;;;2.78;2.25;;;;;;;;;;6307500;28;20290;-74
2023/11/08 03:47:21;;;;;;;2.15;2.15;;;;;;;;;;6307880;28;20598;-70
2023/11/08 03:50:25;;;;;;;2.30;2.20;;;;;;;;;;6307518;28;20302;-72
2023/11/08 03:53:30;;;;;;;2.13;2.13;;;;;;;;;;6305758;28;20642;-70
2023/11/08 03:56:35;;;;;;;2.20;2.20;;;;;;;;;;6307582;28;20397;-71
2023/11/08 03:59:39;;;;;;;2.47;2.28;;;;;;;;;;6307146;28;20313;-70
2023/11/08 04:02:42;;;;;;;2.25;1.98;;;;;;;;;;6306865;28;20286;-71
2023/11/08 04:05:46;;;;;;;2.40;2.30;;;;;;;;;;6306683;28;20298;-71
2023/11/08 04:08:50;;;;;;;2.15;2.05;;;;;;;;;;6307700;28;20620;-71
2023/11/08 04:11:56;;;;;;;2.47;2.22;;;;;;;;;;6306814;28;20302;-72
2023/11/08 04:14:59;;;;;;;2.10;2.10;;;;;;;;;;6306915;28;20317;-71
2023/11/08 04:18:04;;;;;;;2.00;2.00;;;;;;;;;;6307162;28;20298;-72
2023/11/08 04:21:07;;;;;;;2.40;2.20;;;;;;;;;;6306646;28;20302;-70
2023/11/08 04:24:11;;;;;;;2.20;2.10;;;;;;;;;;6306154;28;20266;-72
2023/11/08 04:27:16;;;;;;;2.28;2.28;;;;;;;;;;6306328;28;20310;-72
2023/11/08 04:30:21;;;;;;;2.50;2.30;;;;;;;;;;6306331;28;20302;-70
2023/11/08 04:33:25;;;;;;;4.28;2.15;;;;;;;;;;6306856;28;20251;-70
2023/11/08 04:36:28;;;;;;;1.98;1.98;;;;;;;;;;6306170;28;20547;-72
2023/11/08 04:39:32;;;;;;;2.08;2.08;;;;;;;;;;6306258;28;20314;-71
2023/11/08 04:42:37;;;;;;;2.30;2.08;;;;;;;;;;6306844;28;20611;-70
2023/11/08 04:45:41;;;;;;;2.20;2.05;;;;;;;;;;6305476;28;20306;-72
2023/11/08 04:48:45;;;;;;;2.55;2.00;;;;;;;;;;6306938;28;20282;-71
2023/11/08 04:51:49;;;;;;;2.25;1.90;;;;;;;;;;6304248;28;20314;-70
2023/11/08 04:54:53;;;;;;;1.85;1.85;;;;;;;;;;6306057;28;20354;-70
2023/11/08 04:57:59;;;;;;;1.85;1.80;;;;;;;;;;6306396;28;20302;-69
2023/11/08 05:01:02;;;;;;;2.08;2.08;;;;;;;;;;6305994;28;20634;-71
2023/11/08 05:04:07;;;;;;;2.20;1.80;;;;;;;;;;6306180;28;20339;-70
2023/11/08 05:07:11;;;;;;;1.77;1.67;;;;;;;;;;6305771;28;20503;-70
2023/11/08 05:10:15;;;;;;;2.20;2.13;;;;;;;;;;6305989;28;20286;-70
2023/11/08 05:13:20;;;;;;;2.13;2.00;;;;;;;;;;6306368;28;20306;-69
2023/11/08 05:16:24;;;;;;;2.10;2.05;;;;;;;;;;6305611;28;20283;-71
2023/11/08 05:19:28;;;;;;;2.00;1.90;;;;;;;;;;6305543;28;20294;-71
2023/11/08 05:22:32;;;;;;;1.65;1.65;;;;;;;;;;6305853;28;20294;-70
2023/11/08 05:25:39;;;;;;;3.17;2.08;;;;;;;;;;6305374;28;20302;-71
2023/11/08 05:28:44;;;;;;;1.80;1.80;;;;;;;;;;6305738;28;20298;-71
2023/11/08 05:31:48;;;;;;;2.22;1.98;;;;;;;;;;6305392;28;20298;-70
2023/11/08 05:34:57;;;;;;;2.13;1.83;;;;;;;;;;6305541;28;20283;-70
2023/11/08 05:38:01;;;;;;;2.08;1.98;;;;;;;;;;6305569;28;20366;-70
2023/11/08 05:41:05;;;;;;;3.90;1.92;;;;;;;;;;6305438;28;20366;-71
2023/11/08 05:44:10;;;;;;;2.42;1.83;;;;;;;;;;6306117;28;20297;-70
2023/11/08 05:47:14;;;;;;;2.00;2.00;;;;;;;;;;6304881;28;20290;-70
2023/11/08 05:50:19;;;;;;;2.30;2.20;;;;;;;;;;6305347;28;20302;-70
2023/11/08 05:53:22;;;;;;;4.30;2.28;;;;;;;;;;6303542;28;20289;-72
2023/11/08 05:56:26;;;;;;;3.95;2.50;;;;;;;;;;6305150;28;20290;-72
2023/11/08 05:59:31;;;;;;;2.15;2.15;;;;;;;;;;6310021;28;20579;-71
2023/11/08 06:02:35;;;;;;;2.90;2.20;;;;;;;;;;6310303;28;20289;-71
2023/11/08 06:05:40;;;;;;;2.88;2.50;;;;;;;;;;6309996;28;20289;-71
2023/11/08 06:08:45;;;;;;;2.35;2.25;;;;;;;;;;6309975;28;20298;-71
2023/11/08 06:11:49;;;;;;;2.35;2.20;;;;;;;;;;6309431;28;20317;-71
2023/11/08 06:14:55;;;;;;;2.60;2.38;;;;;;;;;;6309547;28;20291;-72
2023/11/08 06:18:00;;;;;;;2.45;2.35;;;;;;;;;;6309806;28;20297;-71
2023/11/08 06:21:05;;;;;;;2.38;2.30;;;;;;;;;;6309619;28;20603;-72
2023/11/08 06:24:10;;;;;;;2.55;2.45;;;;;;;;;;6309880;28;20378;-71
2023/11/08 06:27:14;;;;;;;4.15;3.03;;;;;;;;;;6308474;28;20301;-71
2023/11/08 06:30:19;;;;;;;3.45;2.50;;;;;;;;;;6309217;28;20306;-71
2023/11/08 06:33:22;;;;;;;3.08;2.38;;;;;;;;;;6309567;28;20286;-70
2023/11/08 06:36:26;;;;;;;3.42;2.78;;;;;;;;;;6307578;28;20294;-71
2023/11/08 06:39:30;;;;;;;2.60;2.40;;;;;;;;;;6308938;28;20346;-71
2023/11/08 06:42:34;;;;;;;3.13;2.60;;;;;;;;;;6309564;28;20490;-72
2023/11/08 06:45:39;;;;;;;2.80;2.53;;;;;;;;;;6308887;28;20686;-70
2023/11/08 06:48:43;;;;;;;2.83;2.63;;;;;;;;;;6309236;28;20595;-70
2023/11/08 06:51:47;;;;;;;3.40;2.60;;;;;;;;;;6306983;28;20603;-70
2023/11/08 06:54:51;;;;;;;2.53;2.42;;;;;;;;;;6308693;28;20290;-70
2023/11/08 06:57:55;;;;;;;2.33;2.33;;;;;;;;;;6309150;28;20302;-69
2023/11/08 07:01:05;;;;;;;2.22;2.22;;;;;;;;;;6308694;28;20319;-71
2023/11/08 07:04:14;;;;;;;4.40;2.45;;;;;;;;;;6308920;28;20318;-71
2023/11/08 07:07:18;;;;;;;2.40;2.40;;;;;;;;;;6291498;28;20496;-71
2023/11/08 07:10:22;;;;;;;2.92;2.50;;;;;;;;;;6308256;28;20294;-72
2023/11/08 07:13:26;;;;;;;2.60;2.50;;;;;;;;;;6308598;28;20298;-70
2023/11/08 07:16:31;;;;;;;2.50;2.30;;;;;;;;;;6306913;28;20522;-70
2023/11/08 07:19:35;;;;;;;2.70;2.47;;;;;;;;;;6308171;28;20286;-70
2023/11/08 07:22:39;;;;;;;2.85;2.75;;;;;;;;;;6308784;28;20594;-69
2023/11/08 07:25:43;;;;;;;2.55;2.45;;;;;;;;;;6308144;28;20294;-69
2023/11/08 07:28:47;;;;;;;2.80;2.60;;;;;;;;;;6308145;28;20314;-70
2023/11/08 07:31:52;;;;;;;3.58;2.60;;;;;;;;;;6307843;28;20310;-70
2023/11/08 07:34:57;;;;;;;5.57;2.90;;;;;;;;;;6307860;28;20598;-70
2023/11/08 07:38:01;;;;;;;4.32;2.92;;;;;;;;;;6308259;28;20302;-71
2023/11/08 07:41:05;;;;;;;3.00;2.80;;;;;;;;;;6308071;28;20310;-70
2023/11/08 07:44:08;;;;;;;5.80;2.70;;;;;;;;;;6308225;28;20426;-71
2023/11/08 07:47:14;;;;;;;2.70;2.60;;;;;;;;;;6307237;28;20480;-69
2023/11/08 07:50:17;;;;;;;3.20;2.80;;;;;;;;;;6307450;28;20302;-72
2023/11/08 07:53:21;;;;;;;2.67;2.58;;;;;;;;;;6306017;28;20333;-70
2023/11/08 07:56:25;;;;;;;2.60;2.50;;;;;;;;;;6307533;28;20286;-70
2023/11/08 07:59:29;;;;;;;2.38;2.38;;;;;;;;;;6307317;28;20609;-70
2023/11/08 08:02:34;;;;;;;2.80;2.70;;;;;;;;;;6307693;28;20290;-71
2023/11/08 08:05:38;;;;;;;5.97;2.88;;;;;;;;;;6307056;28;20298;-71
2023/11/08 08:08:43;;;;;;;2.60;2.50;;;;;;;;;;6307344;28;20385;-71
2023/11/08 08:11:47;;;;;;;2.38;2.22;;;;;;;;;;6305714;28;20308;-69
2023/11/08 08:14:51;;;;;;;3.33;2.38;;;;;;;;;;6307025;28;20290;-70
2023/11/08 08:17:57;;;;;;;2.65;2.40;;;;;;;;;;6307644;28;20294;-71
2023/11/08 08:21:01;;;;;;;2.53;2.42;;;;;;;;;;6305978;28;20298;-71
2023/11/08 08:24:05;;;;;;;2.75;2.38;;;;;;;;;;6307514;28;20479;-71
2023/11/08 08:27:11;;;;;;;2.47;2.47;;;;;;;;;;6306025;28;20338;-71
2023/11/08 08:30:15;;;;;;;2.45;2.25;;;;;;;;;;6307167;28;20302;-71
2023/11/08 08:33:22;;;;;;;2.55;2.33;;;;;;;;;;6307541;28;20254;-70
2023/11/08 08:36:28;;;;;;;2.17;2.10;;;;;;;;;;6306753;28;20310;-71
2023/11/08 08:39:32;;;;;;;4.57;2.13;;;;;;;;;;6306570;28;20299;-71
2023/11/08 08:42:36;;;;;;;2.00;1.90;;;;;;;;;;6307327;28;20616;-70
2023/11/08 08:45:39;;;;;;;3.53;1.83;;;;;;;;;;6304669;28;20439;-69
2023/11/08 08:48:44;;;;;;;2.28;2.28;;;;;;;;;;6306639;28;20286;-70
2023/11/08 08:51:48;;;;;;;2.15;2.15;;;;;;;;;;6304326;28;20301;-70
2023/11/08 08:54:52;;;;;;;2.00;1.92;;;;;;;;;;6306470;28;20317;-70
2023/11/08 08:57:56;;;;;;;1.73;1.73;;;;;;;;;;6306763;28;20313;-70
2023/11/08 09:01:00;;;;;;;2.20;2.08;;;;;;;;;;6306270;28;20298;-70
2023/11/08 09:04:05;;;;;;;1.88;1.80;;;;;;;;;;6306897;28;20298;-69
2023/11/08 09:07:11;;;;;;;1.70;1.70;;;;;;;;;;6306332;28;20294;-73
2023/11/08 09:10:15;;;;;;;1.98;1.98;;;;;;;;;;6305934;28;20290;-71
2023/11/08 09:13:19;;;;;;;2.03;1.92;;;;;;;;;;6306160;28;20365;-70
2023/11/08 09:16:22;;;;;;;2.30;2.00;;;;;;;;;;6305742;28;20366;-69
2023/11/08 09:19:28;;;;;;;1.70;1.70;;;;;;;;;;6305766;28;20294;-71
2023/11/08 09:22:32;;;;;;;1.90;1.88;;;;;;;;;;6305875;28;20455;-70
2023/11/08 09:25:35;;;;;;;1.95;1.85;;;;;;;;;;6305393;28;20289;-70
2023/11/08 09:28:39;;;;;;;1.95;1.85;;;;;;;;;;6305557;28;20305;-71
2023/11/08 09:31:43;;;;;;;1.60;1.60;;;;;;;;;;6305066;28;20293;-70
2023/11/08 09:34:49;;;;;;;1.70;1.60;;;;;;;;;;6305094;28;20278;-71
2023/11/08 09:37:55;;;;;;;1.55;1.55;;;;;;;;;;6305786;28;20305;-70
2023/11/08 09:40:59;;;;;;;1.90;1.80;;;;;;;;;;6305097;28;20329;-70
2023/11/08 09:44:03;;;;;;;1.50;1.50;;;;;;;;;;6305659;28;20450;-73
2023/11/08 09:47:07;;;;;;;2.35;1.58;;;;;;;;;;6304896;28;20289;-71
2023/11/08 09:50:12;;;;;;;6.38;1.80;;;;;;;;;;6304766;28;20298;-71
2023/11/08 09:53:17;;;;;;;1.92;1.80;;;;;;;;;;6303730;28;20290;-71
2023/11/08 09:56:21;;;;;;;2.47;1.77;;;;;;;;;;6304972;28;20456;-70
2023/11/08 09:59:25;;;;;;;3.40;1.70;;;;;;;;;;6304568;28;20286;-71
2023/11/08 10:02:30;;;;;;;1.65;1.65;;;;;;;;;;6304855;28;20384;-70
2023/11/08 10:05:36;;;;;;;1.67;1.60;;;;;;;;;;6304621;28;20298;-71
2023/11/08 10:08:41;;;;;;;1.73;1.63;;;;;;;;;;6305233;28;20322;-72
2023/11/08 10:11:48;;;;;;;1.35;1.35;;;;;;;;;;6304417;28;20302;-70
2023/11/08 10:14:58;;;;;;;2.38;1.80;;;;;;;;;;6304644;28;20614;-72
2023/11/08 10:18:02;;;;;;;1.70;1.70;;;;;;;;;;6305297;28;20547;-70
2023/11/08 10:21:30;;;;;;;1.77;1.65;;;;;;;;;;6303775;28;20306;-70
2023/11/08 10:24:34;;;;;;;1.40;1.40;;;;;;;;;;6304945;28;20359;-71
2023/11/08 10:27:38;;;;;;;1.52;1.52;;;;;;;;;;6305285;28;20282;-70
2023/11/08 10:30:42;;;;;;;1.13;1.13;;;;;;;;;;6304532;28;20583;-71
2023/11/08 10:33:56;;;;;;;1.58;1.45;;;;;;;;;;6304946;28;20286;-69
2023/11/08 10:37:01;;;;;;;1.20;1.20;;;;;;;;;;6304339;28;20298;-72
2023/11/08 10:40:08;;;;;;;1.50;1.50;;;;;;;;;;6304433;28;20302;-73
2023/11/08 10:43:12;;;;;;;1.60;1.60;;;;;;;;;;6305863;28;20294;-71
2023/11/08 10:46:16;;;;;;;1.48;1.48;;;;;;;;;;6308840;28;20640;-71
2023/11/08 10:49:19;;;;;;;1.50;1.50;;;;;;;;;;6308757;28;20301;-70
2023/11/08 10:52:27;;;;;;;1.67;1.63;;;;;;;;;;6307402;28;20306;-70
2023/11/08 10:55:31;;;;;;;3.30;1.60;;;;;;;;;;6308803;28;20322;-72
2023/11/08 10:58:38;;;;;;;1.50;1.50;;;;;;;;;;6308951;28;20294;-71
2023/11/08 11:01:43;;;;;;;2.30;1.70;;;;;;;;;;6308471;28;20287;-70
2023/11/08 11:04:51;;;;;;;2.00;1.90;;;;;;;;;;6308513;28;20295;-71
2023/11/08 11:07:57;;;;;;;1.63;1.52;;;;;;;;;;6308859;28;20289;-72
2023/11/08 11:11:01;;;;;;;1.60;1.60;;;;;;;;;;6308053;28;20433;-72
2023/11/08 11:14:16;;;;;;;2.40;2.20;;;;;;;;;;6308393;28;20622;-71
2023/11/08 11:17:23;;;;;;;2.60;2.40;;;;;;;;;;6307806;28;20298;-68
2023/11/08 11:20:34;;;;;;;3.88;2.70;;;;;;;;;;6308155;28;20294;-72
2023/11/08 11:23:41;;;;;;;2.85;2.30;;;;;;;;;;6308711;28;20310;-70
2023/11/08 11:26:46;;;;;;;2.67;2.55;;;;;;;;;;6308118;28;20298;-70
2023/11/08 11:30:26;;;;;;;3.90;3.22;;;;;;;;;;6307571;28;20322;-70
2023/11/08 11:33:34;;;;;;;5.13;2.47;;;;;;;;;;6307717;28;20306;-70
2023/11/08 11:37:10;;;;;;;3.10;2.30;;;;;;;;;;6307636;28;20338;-69
2023/11/08 11:40:15;;;;;;;2.35;2.25;;;;;;;;;;6307713;28;20489;-70
2023/11/08 11:43:39;;;;;;;2.08;1.90;;;;;;;;;;6307916;28;20286;-71
2023/11/08 11:46:50;;;;;;;2.40;2.20;;;;;;;;;;6307080;28;20290;-71
2023/11/08 11:49:59;;;;;;;1.88;1.88;;;;;;;;;;6307408;28;20298;-70
2023/11/08 11:53:03;;;;;;;2.00;2.00;;;;;;;;;;6306134;28;20295;-69
2023/11/08 11:56:10;;;;;;;2.10;2.10;;;;;;;;;;6307194;28;20298;-71
2023/11/08 11:59:14;;;;;;;2.60;2.50;;;;;;;;;;6307652;28;20598;-71
2023/11/08 12:02:18;;;;;;;2.30;2.10;;;;;;;;;;6306863;28;20295;-72
2023/11/08 12:05:22;;;;;;;2.67;2.20;;;;;;;;;;6307153;28;20333;-70
2023/11/08 12:08:27;;;;;;;2.15;2.08;;;;;;;;;;6307415;28;20326;-71
2023/11/08 12:11:33;;;;;;;1.95;1.88;;;;;;;;;;6306849;28;20314;-70
2023/11/08 12:14:39;;;;;;;2.15;2.00;;;;;;;;;;6307154;28;20721;-70
2023/11/08 12:17:48;;;;;;;2.50;2.42;;;;;;;;;;6307392;28;20298;-73
2023/11/08 12:20:52;;;;;;;3.42;2.35;;;;;;;;;;6306678;28;20598;-72
2023/11/08 12:23:55;;;;;;;2.67;2.47;;;;;;;;;;6307292;27;20298;-71
2023/11/08 12:27:01;;;;;;;2.80;2.65;;;;;;;;;;6306687;28;20290;-71
2023/11/08 12:30:05;;;;;;;3.05;2.70;;;;;;;;;;6306399;27;20294;-71
2023/11/08 12:33:09;;;;;;;2.85;2.25;;;;;;;;;;6307109;28;20291;-71
2023/11/08 12:36:13;;;;;;;2.60;2.50;;;;;;;;;;6305681;28;20358;-70
2023/11/08 12:39:21;;;;;;;2.83;2.40;;;;;;;;;;6306575;28;20258;-71
2023/11/08 12:42:32;;;;;;;3.50;2.60;;;;;;;;;;6306786;28;20481;-70
2023/11/08 12:45:35;;;;;;;3.28;2.97;;;;;;;;;;6306448;28;20290;-71
2023/11/08 12:48:59;;;;;;;3.28;2.45;;;;;;;;;;6305861;28;20587;-71
2023/11/08 12:52:04;;;;;;;3.08;2.15;;;;;;;;;;6304427;28;20298;-70
2023/11/08 12:55:08;;;;;;;3.45;2.25;;;;;;;;;;6306078;28;20295;-70
2023/11/08 12:58:24;;;;;;;2.58;2.00;;;;;;;;;;6305479;28;20273;-72
2023/11/08 13:01:28;;;;;;;2.35;1.92;;;;;;;;;;6305964;28;20291;-71
2023/11/08 13:04:32;;;;;;;2.10;1.90;;;;;;;;;;6305974;28;20563;-71
2023/11/08 13:07:38;;;;;;;3.92;1.52;;;;;;;;;;6306023;28;20377;-71
2023/11/08 13:10:42;;;;;;;4.53;1.90;;;;;;;;;;6305809;28;20234;-70
2023/11/08 13:13:48;;;;;;;2.05;1.75;;;;;;;;;;6306104;28;20299;-71
2023/11/08 13:16:52;;;;;;;7.60;2.20;;;;;;;;;;6306042;28;20497;-71
2023/11/08 13:19:55;;;;;;;1.90;1.83;;;;;;;;;;6304693;28;20432;-72
2023/11/08 13:23:01;;;;;;;1.92;1.60;;;;;;;;;;6306045;28;20286;-69
2023/11/08 13:26:06;;;;;;;4.45;1.58;;;;;;;;;;6305924;28;20306;-70
2023/11/08 13:29:11;;;;;;;6.72;1.83;;;;;;;;;;6306353;28;20466;-70
2023/11/08 13:32:14;;;;;;;4.03;1.85;;;;;;;;;;6305921;28;20345;-70
2023/11/08 13:35:19;;;;;;;6.72;1.90;;;;;;;;;;6305693;28;20294;-69
2023/11/08 13:38:22;;;;;;;2.90;1.50;;;;;;;;;;6305434;28;20293;-69
2023/11/08 13:41:27;;;;;;;1.77;1.70;;;;;;;;;;6303966;28;20365;-70
2023/11/08 13:44:32;;;;;;;2.75;1.80;;;;;;;;;;6305888;28;20290;-70
2023/11/08 13:47:37;;;;;;;1.80;1.70;;;;;;;;;;6305864;28;20486;-70
2023/11/08 13:50:40;;;;;;;1.50;1.40;;;;;;;;;;6305661;28;20322;-70
2023/11/08 13:53:44;;;;;;;2.15;1.83;;;;;;;;;;6304231;28;20297;-70
2023/11/08 13:56:48;;;;;;;2.63;1.90;;;;;;;;;;6305212;28;20293;-70
2023/11/08 13:59:53;;;;;;;3.97;1.77;;;;;;;;;;6303930;28;20290;-68
2023/11/08 14:03:00;;;;;;;1.77;1.77;;;;;;;;;;6305672;28;20283;-70
2023/11/08 14:06:05;;;;;;;6.00;1.80;;;;;;;;;;6305167;28;20543;-70
2023/11/08 14:09:12;;;;;;;2.42;1.55;;;;;;;;;;6305075;28;20301;-70
2023/11/08 14:12:15;;;;;;;1.75;1.65;;;;;;;;;;6304151;28;20310;-70
2023/11/08 14:15:20;;;;;;;1.63;1.60;;;;;;;;;;6304795;28;20306;-71
2023/11/08 14:18:24;;;;;;;3.53;1.60;;;;;;;;;;6306565;28;20588;-71
2023/11/08 14:21:28;;;;;;;1.50;1.50;;;;;;;;;;6308093;28;20314;-70
2023/11/08 14:24:31;;;;;;;1.30;1.30;;;;;;;;;;6309668;28;20294;-71
2023/11/08 14:27:35;;;;;;;1.65;1.55;;;;;;;;;;6308646;28;20309;-69
2023/11/08 14:30:40;;;;;;;1.80;1.52;;;;;;;;;;6309345;28;20297;-69
2023/11/08 14:33:44;;;;;;;1.30;1.30;;;;;;;;;;6309791;28;20302;-70
2023/11/08 14:36:48;;;;;;;2.05;1.60;;;;;;;;;;6309528;28;20293;-70
2023/11/08 14:40:00;;;;;;;1.77;1.67;;;;;;;;;;6309081;28;20301;-70
2023/11/08 14:43:05;;;;;;;1.88;1.77;;;;;;;;;;6309658;28;20282;-70
2023/11/08 14:46:10;;;;;;;1.70;1.70;;;;;;;;;;6307390;28;20302;-70
2023/11/08 14:49:14;;;;;;;2.97;1.50;;;;;;;;;;6309572;28;20550;-70
2023/11/08 14:52:18;;;;;;;1.92;1.70;;;;;;;;;;6306429;28;20310;-69
2023/11/08 14:55:23;;;;;;;2.20;2.00;;;;;;;;;;6308624;28;20477;-70
2023/11/08 14:58:26;;;;;;;1.67;1.40;;;;;;;;;;6309285;28;20286;-69
2023/11/08 15:01:33;;;;;;;1.52;1.52;;;;;;;;;;6309118;28;20294;-70
2023/11/08 15:04:37;;;;;;;2.05;1.38;;;;;;;;;;6308485;28;20310;-69
2023/11/08 15:07:41;;;;;;;1.60;1.60;;;;;;;;;;6307966;28;20339;-72
2023/11/08 15:11:05;;;;;;;1.80;1.70;;;;;;;;;;6308268;28;20382;-73
2023/11/08 15:14:09;;;;;;;2.10;2.00;;;;;;;;;;6308557;28;20544;-72
2023/11/08 15:17:14;;;;;;;3.72;1.70;;;;;;;;;;6308217;28;20326;-72
2023/11/08 15:20:21;;;;;;;1.73;1.73;;;;;;;;;;6308295;28;20317;-73
2023/11/08 15:23:25;;;;;;;2.03;1.88;;;;;;;;;;6308802;28;20294;-73
2023/11/08 15:26:29;;;;;;;2.15;1.63;;;;;;;;;;6308463;28;20318;-71
2023/11/08 15:29:33;;;;;;;2.17;2.00;;;;;;;;;;6307727;28;20610;-74
2023/11/08 15:32:38;;;;;;;3.15;2.00;;;;;;;;;;6308317;28;20299;-72
2023/11/08 15:35:42;;;;;;;2.25;2.15;;;;;;;;;;6308328;28;20603;-73
2023/11/08 15:38:52;;;;;;;2.05;1.95;;;;;;;;;;6308771;28;20302;-72
2023/11/08 15:41:57;;;;;;;1.95;1.95;;;;;;;;;;6308348;28;20294;-72
2023/11/08 15:45:00;;;;;;;2.92;2.15;;;;;;;;;;6307772;28;20302;-72
2023/11/08 15:48:06;;;;;;;2.20;2.08;;;;;;;;;;6308531;28;20294;-72
2023/11/08 15:51:10;;;;;;;2.03;2.03;;;;;;;;;;6307197;28;20306;-74
2023/11/08 15:54:14;;;;;;;2.17;1.92;;;;;;;;;;6304857;28;20294;-72
2023/11/08 15:57:17;;;;;;;2.00;2.00;;;;;;;;;;6307015;28;20305;-72
2023/11/08 16:00:21;;;;;;;2.30;2.10;;;;;;;;;;6307472;28;20302;-72
2023/11/08 16:03:26;;;;;;;1.92;1.83;;;;;;;;;;6308624;28;20242;-73
2023/11/08 16:06:30;;;;;;;2.17;2.15;;;;;;;;;;6308031;28;20606;-71
2023/11/08 16:09:34;;;;;;;2.17;2.08;;;;;;;;;;6307765;28;20486;-71
2023/11/08 16:12:38;;;;;;;3.50;2.42;;;;;;;;;;6308115;28;20289;-69
2023/11/08 16:15:42;;;;;;;2.20;2.20;;;;;;;;;;6307070;28;20298;-69
2023/11/08 16:18:47;;;;;;;2.30;2.20;;;;;;;;;;6307430;28;20290;-70
2023/11/08 16:21:54;;;;;;;2.92;2.78;;;;;;;;;;6306802;28;20306;-70
2023/11/08 16:24:57;;;;;;;2.70;2.58;;;;;;;;;;6306749;28;20373;-70
2023/11/08 16:28:01;;;;;;;2.42;2.22;;;;;;;;;;6307299;28;20286;-70
2023/11/08 16:31:08;;;;;;;2.33;2.13;;;;;;;;;;6306934;28;20302;-70
2023/11/08 16:34:34;;;;;;;2.10;2.10;;;;;;;;;;6306677;28;20290;-70
2023/11/08 16:37:39;;;;;;;2.47;2.00;;;;;;;;;;6307147;28;20298;-71
2023/11/08 16:40:44;;;;;;;1.83;1.73;;;;;;;;;;6305736;28;20299;-71
2023/11/08 16:43:47;;;;;;;1.77;1.75;;;;;;;;;;6307205;28;20290;-70
2023/11/08 16:46:51;;;;;;;1.40;1.40;;;;;;;;;;6306121;28;20302;-70
2023/11/08 16:49:57;;;;;;;1.40;1.40;;;;;;;;;;6306254;28;20583;-71
2023/11/08 16:53:00;;;;;;;1.52;1.52;;;;;;;;;;6304807;28;20290;-70
2023/11/08 16:56:07;;;;;;;1.65;1.65;;;;;;;;;;6306140;28;20303;-69
2023/11/08 16:59:11;;;;;;;1.50;1.50;;;;;;;;;;6306311;28;20614;-71
2023/11/08 17:02:14;;;;;;;1.58;1.58;;;;;;;;;;6306137;28;20302;-70
2023/11/08 17:05:19;;;;;;;2.10;1.95;;;;;;;;;;6305074;28;20302;-71
2023/11/08 17:08:23;;;;;;;1.88;1.85;;;;;;;;;;6306648;28;20298;-71
2023/11/08 17:11:28;;;;;;;1.80;1.80;;;;;;;;;;6305572;28;20286;-70
2023/11/08 17:14:31;;;;;;;1.60;1.60;;;;;;;;;;6305637;28;20290;-70
2023/11/08 17:17:36;;;;;;;1.83;1.83;;;;;;;;;;6306310;28;20290;-71
2023/11/08 17:20:41;;;;;;;2.33;2.33;;;;;;;;;;6305972;28;20306;-70
2023/11/08 17:23:47;;;;;;;1.92;1.92;;;;;;;;;;6305746;28;20302;-70
2023/11/08 17:26:51;;;;;;;2.55;2.55;;;;;;;;;;6302861;28;20297;-69
2023/11/08 17:29:55;;;;;;;1.98;1.98;;;;;;;;;;6305734;28;20294;-70
2023/11/08 17:32:59;;;;;;;2.00;2.00;;;;;;;;;;6281945;28;20464;-70
2023/11/08 17:36:05;;;;;;;2.67;2.67;;;;;;;;;;6280814;28;20551;-71
2023/11/08 17:39:11;;;;;;;2.78;2.78;;;;;;;;;;6281013;28;20287;-71
2023/11/08 17:42:15;;;;;;;2.70;2.70;;;;;;;;;;6303775;28;20298;-70
2023/11/08 17:45:20;;;;;;;2.20;2.20;;;;;;;;;;6280099;28;20315;-71
2023/11/08 17:48:24;;;;;;;2.00;2.00;;;;;;;;;;6280469;28;20445;-70
2023/11/08 17:51:30;;;;;;;2.20;2.20;;;;;;;;;;6278576;28;20342;-71
2023/11/08 17:54:33;;;;;;;2.08;2.00;;;;;;;;;;6288739;28;20290;-72
2023/11/08 17:57:37;;;;;;;2.28;2.10;;;;;;;;;;6288703;28;20294;-74
2023/11/08 18:00:41;;;;;;;2.90;2.80;;;;;;;;;;6286656;28;20282;-72
2023/11/08 18:03:45;;;;;;;5.22;4.82;;;;;;;;;;6287286;28;20452;-70
2023/11/08 18:06:50;;;;;;;2.75;2.75;;;;;;;;;;6288531;28;20317;-71
2023/11/08 18:09:55;;;;;;;3.70;3.50;;;;;;;;;;6287986;28;20283;-69
2023/11/08 18:12:59;;;;;;;2.75;2.75;;;;;;;;;;6270481;28;20299;-70
2023/11/08 18:16:03;;;;;;;2.95;2.90;;;;;;;;;;6263638;28;20605;-71
2023/11/08 18:19:07;;;;;;;3.20;3.20;;;;;;;;;;6263815;28;20291;-69
2023/11/08 18:22:13;;;;;;;3.70;3.63;;;;;;;;;;6263357;28;20299;-69
2023/11/08 18:25:18;;;;;;;4.40;4.20;;;;;;;;;;6263436;28;20299;-69
2023/11/08 18:28:22;;;;;;;4.32;4.13;;;;;;;;;;6263965;28;20295;-70
2023/11/08 18:31:25;;;;;;;3.90;3.80;;;;;;;;;;6239864;28;20288;-69